createdAt,value
2017-04-30T00:00:01.295Z,0
2017-04-30T00:01:01.936Z,0
2017-04-30T00:02:02.574Z,0
2017-04-30T00:03:03.212Z,0
2017-04-30T00:04:03.848Z,0
2017-04-30T00:05:04.689Z,0
2017-04-30T00:06:05.329Z,0
2017-04-30T00:07:05.970Z,0
2017-04-30T00:08:06.610Z,0
2017-04-30T00:09:07.259Z,0
2017-04-30T00:10:07.888Z,0
2017-04-30T00:11:08.530Z,0
2017-04-30T00:12:09.171Z,0
2017-04-30T00:13:10.013Z,0
2017-04-30T00:14:10.600Z,0
2017-04-30T00:15:11.241Z,0
2017-04-30T00:16:11.882Z,0
2017-04-30T00:17:12.519Z,0
2017-04-30T00:18:13.156Z,0
2017-04-30T00:19:13.796Z,0
2017-04-30T00:20:14.439Z,0
2017-04-30T00:21:15.089Z,0
2017-04-30T00:22:15.923Z,0
2017-04-30T00:23:16.563Z,0
2017-04-30T00:24:17.205Z,0
2017-04-30T00:25:17.794Z,0
2017-04-30T00:26:18.436Z,0
2017-04-30T00:27:19.076Z,0
2017-04-30T00:28:19.716Z,0
2017-04-30T00:29:20.351Z,0
2017-04-30T00:30:21.192Z,0
2017-04-30T00:31:21.829Z,0
2017-04-30T00:32:22.468Z,0
2017-04-30T00:33:23.111Z,0
2017-04-30T00:34:23.805Z,0
2017-04-30T00:35:24.447Z,0
2017-04-30T00:36:25.084Z,0
2017-04-30T00:37:25.727Z,0
2017-04-30T00:38:26.563Z,0
2017-04-30T00:39:27.204Z,0
2017-04-30T00:40:27.841Z,0
2017-04-30T00:41:28.485Z,0
2017-04-30T00:42:29.120Z,0
2017-04-30T00:43:29.761Z,0
2017-04-30T00:44:30.398Z,0
2017-04-30T00:45:31.037Z,0
2017-04-30T00:46:31.882Z,0
2017-04-30T00:47:32.520Z,0
2017-04-30T00:48:33.164Z,0
2017-04-30T00:49:33.798Z,0
2017-04-30T00:50:34.441Z,0
2017-04-30T00:51:35.076Z,0
2017-04-30T00:52:35.712Z,0
2017-04-30T00:53:36.352Z,0
2017-04-30T00:54:37.190Z,0
2017-04-30T00:55:37.835Z,0
2017-04-30T00:56:38.472Z,0
2017-04-30T00:57:39.115Z,0
2017-04-30T00:58:39.756Z,0
2017-04-30T00:59:40.396Z,0
2017-04-30T01:00:41.039Z,0
2017-04-30T01:01:41.680Z,0
2017-04-30T01:02:42.322Z,0
2017-04-30T01:03:43.162Z,0
2017-04-30T01:04:43.801Z,0
2017-04-30T01:05:44.443Z,0
2017-04-30T01:06:45.086Z,0
2017-04-30T01:07:45.727Z,0
2017-04-30T01:08:46.365Z,0
2017-04-30T01:09:46.997Z,0
2017-04-30T01:10:47.638Z,0
2017-04-30T01:11:48.422Z,0
2017-04-30T01:12:49.062Z,0
2017-04-30T01:13:49.703Z,0
2017-04-30T01:14:50.345Z,0
2017-04-30T01:15:50.982Z,0
2017-04-30T01:16:51.621Z,0
2017-04-30T01:17:52.261Z,0
2017-04-30T01:18:52.904Z,0
2017-04-30T01:19:53.740Z,0
2017-04-30T01:20:54.380Z,0
2017-04-30T01:21:55.016Z,0
2017-04-30T01:22:55.657Z,0
2017-04-30T01:23:56.305Z,0
2017-04-30T01:24:56.941Z,0
2017-04-30T01:25:57.578Z,0
2017-04-30T01:26:58.217Z,0
2017-04-30T01:27:59.058Z,0
2017-04-30T01:28:59.700Z,0
2017-04-30T01:30:00.340Z,0
2017-04-30T01:31:00.983Z,0
2017-04-30T01:32:01.623Z,0
2017-04-30T01:33:02.263Z,0
2017-04-30T01:34:02.902Z,0
2017-04-30T01:35:03.544Z,0
2017-04-30T01:36:04.189Z,0
2017-04-30T01:37:05.027Z,0
2017-04-30T01:38:05.670Z,0
2017-04-30T01:39:06.311Z,0
2017-04-30T01:40:06.951Z,0
2017-04-30T01:41:07.595Z,0
2017-04-30T01:42:08.237Z,0
2017-04-30T01:43:08.878Z,0
2017-04-30T01:44:09.519Z,0
2017-04-30T01:45:10.418Z,0
2017-04-30T01:46:11.059Z,0
2017-04-30T01:47:11.706Z,0
2017-04-30T01:48:12.340Z,0
2017-04-30T01:49:12.982Z,0
2017-04-30T01:50:13.623Z,0
2017-04-30T01:51:14.265Z,0
2017-04-30T01:52:14.903Z,0
2017-04-30T01:53:15.740Z,0
2017-04-30T01:54:16.384Z,0
2017-04-30T01:55:17.023Z,0
2017-04-30T01:56:17.665Z,0
2017-04-30T01:57:18.301Z,0
2017-04-30T01:58:18.950Z,0
2017-04-30T01:59:19.905Z,0
2017-04-30T02:00:20.548Z,0
2017-04-30T02:01:21.385Z,0
2017-04-30T02:02:22.029Z,0
2017-04-30T02:03:22.667Z,0
2017-04-30T02:04:23.305Z,0
2017-04-30T02:05:23.954Z,0
2017-04-30T02:06:24.587Z,0
2017-04-30T02:07:25.222Z,0
2017-04-30T02:08:25.864Z,0
2017-04-30T02:09:26.707Z,0
2017-04-30T02:10:27.347Z,0
2017-04-30T02:11:27.985Z,0
2017-04-30T02:12:28.620Z,0
2017-04-30T02:13:29.262Z,0
2017-04-30T02:14:29.899Z,0
2017-04-30T02:15:30.540Z,0
2017-04-30T02:16:31.181Z,0
2017-04-30T02:17:31.820Z,0
2017-04-30T02:18:32.610Z,0
2017-04-30T02:19:33.254Z,0
2017-04-30T02:20:33.894Z,0
2017-04-30T02:21:34.533Z,0
2017-04-30T02:22:35.173Z,0
2017-04-30T02:23:35.806Z,0
2017-04-30T02:24:36.448Z,0
2017-04-30T02:25:37.089Z,0
2017-04-30T02:26:37.928Z,0
2017-04-30T02:27:38.570Z,0
2017-04-30T02:28:39.208Z,0
2017-04-30T02:29:39.842Z,0
2017-04-30T02:30:40.479Z,0
2017-04-30T02:31:41.120Z,0
2017-04-30T02:32:41.759Z,0
2017-04-30T02:33:42.399Z,0
2017-04-30T02:34:43.238Z,0
2017-04-30T02:35:43.878Z,0
2017-04-30T02:36:44.519Z,0
2017-04-30T02:37:45.159Z,0
2017-04-30T02:38:45.795Z,0
2017-04-30T02:39:46.441Z,0
2017-04-30T02:40:47.079Z,0
2017-04-30T02:41:47.720Z,0
2017-04-30T02:42:48.562Z,0
2017-04-30T02:43:49.202Z,0
2017-04-30T02:44:49.842Z,0
2017-04-30T02:45:50.484Z,0
2017-04-30T02:46:51.123Z,0
2017-04-30T02:47:51.767Z,0
2017-04-30T02:48:52.401Z,0
2017-04-30T02:49:53.041Z,0
2017-04-30T02:50:53.682Z,0
2017-04-30T02:51:54.767Z,0
2017-04-30T02:52:55.406Z,0
2017-04-30T02:53:56.045Z,0
2017-04-30T02:54:56.683Z,0
2017-04-30T02:55:57.326Z,0
2017-04-30T02:56:57.966Z,0
2017-04-30T02:57:58.607Z,0
2017-04-30T02:58:59.254Z,0
2017-04-30T03:00:00.089Z,0
2017-04-30T03:01:00.730Z,0
2017-04-30T03:02:01.367Z,0
2017-04-30T03:03:02.009Z,0
2017-04-30T03:04:02.654Z,0
2017-04-30T03:05:03.287Z,0
2017-04-30T03:06:03.926Z,0
2017-04-30T03:07:04.568Z,0
2017-04-30T03:08:05.411Z,0
2017-04-30T03:09:06.049Z,0
2017-04-30T03:10:06.692Z,0
2017-04-30T03:11:07.331Z,0
2017-04-30T03:12:07.972Z,0
2017-04-30T03:13:08.614Z,0
2017-04-30T03:14:09.253Z,0
2017-04-30T03:15:09.887Z,0
2017-04-30T03:16:10.676Z,0
2017-04-30T03:17:11.314Z,0
2017-04-30T03:18:11.955Z,0
2017-04-30T03:19:12.597Z,0
2017-04-30T03:20:13.233Z,0
2017-04-30T03:21:13.873Z,0
2017-04-30T03:22:14.516Z,0
2017-04-30T03:23:15.158Z,0
2017-04-30T03:24:16.248Z,0
2017-04-30T03:25:16.885Z,0
2017-04-30T03:26:17.527Z,0
2017-04-30T03:27:21.114Z,0
2017-04-30T03:28:21.760Z,0
2017-04-30T03:29:22.396Z,0
2017-04-30T03:30:23.035Z,0
2017-04-30T03:31:23.677Z,0
2017-04-30T03:32:24.318Z,0
2017-04-30T03:33:25.106Z,0
2017-04-30T03:34:25.748Z,0
2017-04-30T03:35:26.387Z,0
2017-04-30T03:36:27.027Z,0
2017-04-30T03:37:27.666Z,0
2017-04-30T03:38:28.308Z,0
2017-04-30T03:39:28.948Z,0
2017-04-30T03:40:29.589Z,0
2017-04-30T03:41:30.577Z,0
2017-04-30T03:42:31.216Z,0
2017-04-30T03:43:31.853Z,0
2017-04-30T03:44:32.492Z,0
2017-04-30T03:45:33.132Z,0
2017-04-30T03:46:33.774Z,0
2017-04-30T03:47:34.410Z,0
2017-04-30T03:48:35.050Z,0
2017-04-30T03:49:35.889Z,0
2017-04-30T03:50:36.481Z,0
2017-04-30T03:51:37.116Z,0
2017-04-30T03:52:37.756Z,0
2017-04-30T03:53:38.394Z,0
2017-04-30T03:54:39.038Z,0
2017-04-30T03:55:39.681Z,0
2017-04-30T03:56:40.320Z,0
2017-04-30T03:57:41.109Z,0
2017-04-30T03:58:41.750Z,0
2017-04-30T03:59:42.393Z,0
2017-04-30T04:00:43.033Z,0
2017-04-30T04:01:43.675Z,0
2017-04-30T04:02:44.312Z,0
2017-04-30T04:03:44.952Z,0
2017-04-30T04:04:45.592Z,0
2017-04-30T04:05:46.232Z,0
2017-04-30T04:06:47.175Z,0
2017-04-30T04:07:47.811Z,0
2017-04-30T04:08:48.449Z,0
2017-04-30T04:09:49.091Z,0
2017-04-30T04:10:49.730Z,0
2017-04-30T04:11:50.369Z,0
2017-04-30T04:12:51.006Z,0
2017-04-30T04:13:51.645Z,0
2017-04-30T04:14:52.544Z,0
2017-04-30T04:15:53.183Z,0
2017-04-30T04:16:53.823Z,0
2017-04-30T04:17:54.459Z,0
2017-04-30T04:18:55.099Z,0
2017-04-30T04:19:55.740Z,0
2017-04-30T04:20:56.379Z,0
2017-04-30T04:21:57.018Z,0
2017-04-30T04:22:57.808Z,0
2017-04-30T04:23:58.450Z,0
2017-04-30T04:24:59.084Z,0
2017-04-30T04:25:59.726Z,0
2017-04-30T04:27:00.368Z,0
2017-04-30T04:28:01.006Z,0
2017-04-30T04:29:01.647Z,0
2017-04-30T04:30:02.290Z,0
2017-04-30T04:31:03.130Z,0
2017-04-30T04:32:03.772Z,0
2017-04-30T04:33:04.409Z,0
2017-04-30T04:34:05.048Z,0
2017-04-30T04:35:05.691Z,0
2017-04-30T04:36:06.331Z,0
2017-04-30T04:37:06.967Z,0
2017-04-30T04:38:07.606Z,0
2017-04-30T04:39:08.441Z,0
2017-04-30T04:40:09.076Z,0
2017-04-30T04:41:09.717Z,0
2017-04-30T04:42:10.353Z,0
2017-04-30T04:43:10.992Z,0
2017-04-30T04:44:11.630Z,0
2017-04-30T04:45:12.268Z,0
2017-04-30T04:46:12.906Z,0
2017-04-30T04:47:13.551Z,0
2017-04-30T04:48:14.339Z,0
2017-04-30T04:49:14.973Z,0
2017-04-30T04:50:15.613Z,0
2017-04-30T04:51:16.252Z,0
2017-04-30T04:52:16.891Z,0
2017-04-30T04:53:17.530Z,0
2017-04-30T04:54:18.168Z,0
2017-04-30T04:55:18.806Z,0
2017-04-30T04:56:19.799Z,0
2017-04-30T04:57:20.445Z,0
2017-04-30T04:58:21.088Z,0
2017-04-30T04:59:21.726Z,0
2017-04-30T05:00:22.364Z,0
2017-04-30T05:01:23.005Z,0
2017-04-30T05:02:23.646Z,0
2017-04-30T05:03:24.286Z,0
2017-04-30T05:04:25.128Z,0
2017-04-30T05:05:25.826Z,0
2017-04-30T05:06:26.467Z,0
2017-04-30T05:07:27.103Z,0
2017-04-30T05:08:27.800Z,0
2017-04-30T05:09:28.436Z,0
2017-04-30T05:10:29.072Z,0
2017-04-30T05:11:29.707Z,0
2017-04-30T05:12:30.497Z,0
2017-04-30T05:13:31.138Z,0
2017-04-30T05:14:31.779Z,0
2017-04-30T05:15:32.420Z,0
2017-04-30T05:16:33.055Z,0
2017-04-30T05:17:33.694Z,0
2017-04-30T05:18:34.336Z,0
2017-04-30T05:19:34.974Z,0
2017-04-30T05:20:35.615Z,0
2017-04-30T05:21:36.457Z,0
2017-04-30T05:22:37.092Z,0
2017-04-30T05:23:37.732Z,0
2017-04-30T05:24:38.372Z,0
2017-04-30T05:25:39.015Z,0
2017-04-30T05:26:39.654Z,0
2017-04-30T05:27:40.294Z,0
2017-04-30T05:28:40.934Z,0
2017-04-30T05:29:42.023Z,0
2017-04-30T05:30:42.662Z,0
2017-04-30T05:31:43.300Z,0
2017-04-30T05:32:43.940Z,0
2017-04-30T05:33:44.580Z,0
2017-04-30T05:34:45.221Z,0
2017-04-30T05:35:45.862Z,0
2017-04-30T05:36:46.505Z,0
2017-04-30T05:37:47.392Z,0
2017-04-30T05:38:48.032Z,0
2017-04-30T05:39:48.676Z,0
2017-04-30T05:40:49.311Z,0
2017-04-30T05:41:49.953Z,0
2017-04-30T05:42:50.589Z,0
2017-04-30T05:43:51.179Z,0
2017-04-30T05:44:51.819Z,0
2017-04-30T05:45:52.707Z,0
2017-04-30T05:46:53.354Z,0
2017-04-30T05:47:53.994Z,0
2017-04-30T05:48:54.630Z,0
2017-04-30T05:49:55.267Z,0
2017-04-30T05:50:55.906Z,0
2017-04-30T05:51:56.544Z,0
2017-04-30T05:52:57.185Z,0
2017-04-30T05:53:58.371Z,0
2017-04-30T05:54:59.010Z,0
2017-04-30T05:55:59.650Z,0
2017-04-30T05:57:00.289Z,0
2017-04-30T05:58:00.927Z,0
2017-04-30T05:59:01.569Z,0
2017-04-30T06:00:02.204Z,0
2017-04-30T06:01:02.843Z,0
2017-04-30T06:02:03.482Z,0
2017-04-30T06:03:04.323Z,0
2017-04-30T06:04:04.961Z,0
2017-04-30T06:05:05.601Z,0
2017-04-30T06:06:06.243Z,0
2017-04-30T06:07:06.878Z,0
2017-04-30T06:08:07.520Z,0
2017-04-30T06:09:08.160Z,0
2017-04-30T06:10:08.799Z,0
2017-04-30T06:11:09.639Z,0
2017-04-30T06:12:10.278Z,0
2017-04-30T06:13:10.918Z,0
2017-04-30T06:14:11.559Z,0
2017-04-30T06:15:12.198Z,0
2017-04-30T06:16:12.834Z,0
2017-04-30T06:17:13.480Z,0
2017-04-30T06:18:14.118Z,0
2017-04-30T06:19:14.955Z,0
2017-04-30T06:20:15.597Z,0
2017-04-30T06:21:16.235Z,0
2017-04-30T06:22:16.880Z,0
2017-04-30T06:23:17.515Z,0
2017-04-30T06:24:18.154Z,0
2017-04-30T06:25:18.796Z,0
2017-04-30T06:26:19.437Z,0
2017-04-30T06:27:20.276Z,0
2017-04-30T06:28:20.915Z,0
2017-04-30T06:29:21.554Z,0
2017-04-30T06:30:22.191Z,0
2017-04-30T06:31:22.833Z,0
2017-04-30T06:32:23.472Z,0
2017-04-30T06:33:24.111Z,0
2017-04-30T06:34:24.751Z,0
2017-04-30T06:35:25.391Z,0
2017-04-30T06:36:26.181Z,0
2017-04-30T06:37:26.826Z,0
2017-04-30T06:38:27.462Z,0
2017-04-30T06:39:28.100Z,0
2017-04-30T06:40:28.740Z,0
2017-04-30T06:41:29.377Z,0
2017-04-30T06:42:30.015Z,0
2017-04-30T06:43:30.655Z,0
2017-04-30T06:44:31.494Z,0
2017-04-30T06:45:32.138Z,0
2017-04-30T06:46:32.775Z,0
2017-04-30T06:47:33.409Z,0
2017-04-30T06:48:34.051Z,0
2017-04-30T06:49:34.689Z,0
2017-04-30T06:50:35.326Z,0
2017-04-30T06:51:35.967Z,0
2017-04-30T06:52:36.755Z,0
2017-04-30T06:53:37.400Z,0
2017-04-30T06:54:38.041Z,0
2017-04-30T06:55:38.680Z,0
2017-04-30T06:56:39.317Z,0
2017-04-30T06:57:39.957Z,0
2017-04-30T06:58:40.599Z,0
2017-04-30T06:59:41.237Z,0
2017-04-30T07:00:42.077Z,0
2017-04-30T07:01:42.716Z,0
2017-04-30T07:02:43.357Z,0
2017-04-30T07:03:43.996Z,0
2017-04-30T07:04:44.633Z,0
2017-04-30T07:05:45.225Z,0
2017-04-30T07:06:45.863Z,0
2017-04-30T07:07:46.502Z,0
2017-04-30T07:08:47.289Z,0
2017-04-30T07:09:47.929Z,0
2017-04-30T07:10:48.571Z,0
2017-04-30T07:11:49.210Z,0
2017-04-30T07:12:49.847Z,0
2017-04-30T07:13:50.488Z,0
2017-04-30T07:14:51.128Z,0
2017-04-30T07:15:51.770Z,0
2017-04-30T07:16:52.407Z,0
2017-04-30T07:17:53.243Z,0
2017-04-30T07:18:53.884Z,0
2017-04-30T07:19:54.523Z,0
2017-04-30T07:20:55.165Z,0
2017-04-30T07:21:55.805Z,0
2017-04-30T07:22:56.443Z,0
2017-04-30T07:23:57.084Z,0
2017-04-30T07:24:57.725Z,0
2017-04-30T07:25:58.566Z,0
2017-04-30T07:26:59.206Z,0
2017-04-30T07:27:59.841Z,0
2017-04-30T07:29:00.480Z,0
2017-04-30T07:30:01.118Z,0
2017-04-30T07:31:01.756Z,0
2017-04-30T07:32:02.396Z,0
2017-04-30T07:33:03.035Z,0
2017-04-30T07:34:03.823Z,0
2017-04-30T07:35:04.458Z,0
2017-04-30T07:36:05.100Z,0
2017-04-30T07:37:05.738Z,0
2017-04-30T07:38:06.382Z,0
2017-04-30T07:39:07.018Z,0
2017-04-30T07:40:07.660Z,0
2017-04-30T07:41:08.297Z,0
2017-04-30T07:42:09.137Z,0
2017-04-30T07:43:09.787Z,0
2017-04-30T07:44:10.415Z,0
2017-04-30T07:45:11.055Z,0
2017-04-30T07:46:11.689Z,0
2017-04-30T07:47:12.329Z,0
2017-04-30T07:48:12.967Z,0
2017-04-30T07:49:13.612Z,0
2017-04-30T07:50:14.249Z,0
2017-04-30T07:51:15.037Z,0
2017-04-30T07:52:15.675Z,0
2017-04-30T07:53:16.312Z,0
2017-04-30T07:54:16.946Z,0
2017-04-30T07:55:17.586Z,0
2017-04-30T07:56:18.225Z,0
2017-04-30T07:57:18.864Z,0
2017-04-30T07:58:19.505Z,0
2017-04-30T07:59:20.345Z,0
2017-04-30T08:00:20.988Z,0
2017-04-30T08:01:21.621Z,0
2017-04-30T08:02:22.212Z,0
2017-04-30T08:03:22.852Z,0
2017-04-30T08:04:23.489Z,0
2017-04-30T08:05:24.129Z,0
2017-04-30T08:06:24.773Z,0
2017-04-30T08:07:25.408Z,0
2017-04-30T08:08:26.049Z,0
2017-04-30T08:09:26.686Z,4
2017-04-30T08:10:27.331Z,4
2017-04-30T08:11:28.023Z,4
2017-04-30T08:12:28.661Z,0
2017-04-30T08:13:29.301Z,4
2017-04-30T08:14:29.942Z,0
2017-04-30T08:15:30.778Z,4
2017-04-30T08:16:31.419Z,4
2017-04-30T08:17:32.056Z,4
2017-04-30T08:18:32.691Z,4
2017-04-30T08:19:33.281Z,0
2017-04-30T08:20:33.922Z,0
2017-04-30T08:21:34.561Z,0
2017-04-30T08:22:35.402Z,8
2017-04-30T08:23:36.046Z,8
2017-04-30T08:24:36.686Z,8
2017-04-30T08:25:37.329Z,12
2017-04-30T08:26:38.122Z,12
2017-04-30T08:27:38.761Z,12
2017-04-30T08:28:39.398Z,12
2017-04-30T08:29:40.044Z,8
2017-04-30T08:30:40.684Z,8
2017-04-30T08:31:41.323Z,8
2017-04-30T08:32:41.963Z,12
2017-04-30T08:33:42.603Z,12
2017-04-30T08:34:43.392Z,12
2017-04-30T08:35:44.032Z,8
2017-04-30T08:36:44.667Z,8
2017-04-30T08:37:45.310Z,8
2017-04-30T08:38:45.947Z,8
2017-04-30T08:39:46.586Z,8
2017-04-30T08:40:47.220Z,8
2017-04-30T08:41:47.859Z,8
2017-04-30T08:42:48.700Z,8
2017-04-30T08:43:49.340Z,8
2017-04-30T08:44:49.983Z,12
2017-04-30T08:45:50.620Z,8
2017-04-30T08:46:51.260Z,12
2017-04-30T08:47:51.902Z,12
2017-04-30T08:48:52.538Z,12
2017-04-30T08:49:53.179Z,12
2017-04-30T08:50:53.820Z,8
2017-04-30T08:51:54.612Z,8
2017-04-30T08:52:55.250Z,8
2017-04-30T08:53:55.891Z,8
2017-04-30T08:54:56.587Z,8
2017-04-30T08:55:57.227Z,8
2017-04-30T08:56:57.866Z,8
2017-04-30T08:57:58.510Z,8
2017-04-30T08:58:59.148Z,8
2017-04-30T08:59:59.940Z,12
2017-04-30T09:01:00.583Z,12
2017-04-30T09:02:01.279Z,8
2017-04-30T09:03:01.920Z,12
2017-04-30T09:04:02.558Z,12
2017-04-30T09:05:03.198Z,12
2017-04-30T09:06:03.890Z,12
2017-04-30T09:07:04.729Z,12
2017-04-30T09:08:05.372Z,12
2017-04-30T09:09:06.008Z,12
2017-04-30T09:10:06.950Z,12
2017-04-30T09:11:07.591Z,8
2017-04-30T09:12:08.381Z,8
2017-04-30T09:13:09.022Z,12
2017-04-30T09:14:09.668Z,12
2017-04-30T09:15:10.306Z,8
2017-04-30T09:16:10.945Z,8
2017-04-30T09:17:11.587Z,12
2017-04-30T09:18:12.225Z,16
2017-04-30T09:19:12.871Z,8
2017-04-30T09:20:13.710Z,12
2017-04-30T09:21:14.666Z,16
2017-04-30T09:22:15.307Z,12
2017-04-30T09:23:15.946Z,12
2017-04-30T09:24:16.589Z,12
2017-04-30T09:25:17.230Z,16
2017-04-30T09:26:17.869Z,16
2017-04-30T09:27:18.536Z,12
2017-04-30T09:28:19.352Z,12
2017-04-30T09:29:19.992Z,12
2017-04-30T09:30:20.632Z,12
2017-04-30T09:31:21.271Z,12
2017-04-30T09:32:21.913Z,16
2017-04-30T09:33:22.556Z,12
2017-04-30T09:34:23.191Z,12
2017-04-30T09:35:23.833Z,244
2017-04-30T09:36:24.628Z,4768
2017-04-30T09:37:25.273Z,4856
2017-04-30T09:38:25.919Z,4656
2017-04-30T09:39:26.563Z,3032
2017-04-30T09:40:27.207Z,4576
2017-04-30T09:41:27.853Z,4252
2017-04-30T09:42:28.503Z,4532
2017-04-30T09:43:29.141Z,4944
2017-04-30T09:44:29.787Z,5172
2017-04-30T09:45:30.778Z,5388
2017-04-30T09:46:31.423Z,5276
2017-04-30T09:47:32.069Z,4464
2017-04-30T09:48:32.718Z,5352
2017-04-30T09:49:33.360Z,4292
2017-04-30T09:50:34.005Z,3216
2017-04-30T09:51:34.651Z,4812
2017-04-30T09:52:35.297Z,4676
2017-04-30T09:53:36.094Z,4740
2017-04-30T09:54:36.739Z,4752
2017-04-30T09:55:37.387Z,4540
2017-04-30T09:56:38.043Z,4876
2017-04-30T09:57:38.694Z,4660
2017-04-30T09:58:39.330Z,4540
2017-04-30T09:59:39.974Z,4588
2017-04-30T10:00:40.622Z,4620
2017-04-30T10:01:41.466Z,4660
2017-04-30T10:02:42.111Z,4620
2017-04-30T10:03:42.758Z,4476
2017-04-30T10:04:43.402Z,4488
2017-04-30T10:05:44.052Z,4660
2017-04-30T10:06:44.697Z,4760
2017-04-30T10:07:45.341Z,4716
2017-04-30T10:08:45.987Z,4860
2017-04-30T10:09:46.787Z,5024
2017-04-30T10:10:47.434Z,5148
2017-04-30T10:11:48.077Z,4932
2017-04-30T10:12:48.723Z,5104
2017-04-30T10:13:49.371Z,5228
2017-04-30T10:14:50.018Z,5148
2017-04-30T10:15:50.718Z,4872
2017-04-30T10:16:51.361Z,4780
2017-04-30T10:17:52.005Z,4824
2017-04-30T10:18:52.952Z,4832
2017-04-30T10:19:53.593Z,4892
2017-04-30T10:20:54.235Z,4936
2017-04-30T10:21:54.881Z,4976
2017-04-30T10:22:55.526Z,5016
2017-04-30T10:23:56.170Z,5096
2017-04-30T10:24:56.817Z,5168
2017-04-30T10:25:57.464Z,5228
2017-04-30T10:26:58.313Z,5120
2017-04-30T10:27:58.959Z,5116
2017-04-30T10:28:59.612Z,5152
2017-04-30T10:30:00.255Z,5264
2017-04-30T10:31:00.904Z,5224
2017-04-30T10:32:01.550Z,5232
2017-04-30T10:33:02.194Z,5328
2017-04-30T10:34:02.834Z,5416
2017-04-30T10:35:03.682Z,5544
2017-04-30T10:36:04.329Z,5628
2017-04-30T10:37:04.973Z,5628
2017-04-30T10:38:05.619Z,5632
2017-04-30T10:39:06.266Z,5596
2017-04-30T10:40:06.913Z,5680
2017-04-30T10:41:07.562Z,5852
2017-04-30T10:42:08.207Z,5596
2017-04-30T10:43:09.054Z,5940
2017-04-30T10:44:09.696Z,6036
2017-04-30T10:45:10.342Z,6228
2017-04-30T10:46:10.988Z,6288
2017-04-30T10:47:11.633Z,6308
2017-04-30T10:48:12.279Z,6472
2017-04-30T10:49:12.926Z,6552
2017-04-30T10:50:13.582Z,6444
2017-04-30T10:51:14.373Z,6604
2017-04-30T10:52:15.022Z,7944
2017-04-30T10:53:15.672Z,7360
2017-04-30T10:54:16.319Z,7160
2017-04-30T10:55:16.967Z,7700
2017-04-30T10:56:17.611Z,5708
2017-04-30T10:57:18.260Z,8408
2017-04-30T10:58:18.904Z,10136
2017-04-30T10:59:19.554Z,10632
2017-04-30T11:00:20.404Z,11236
2017-04-30T11:01:21.057Z,11372
2017-04-30T11:02:21.695Z,11672
2017-04-30T11:03:22.344Z,13688
2017-04-30T11:04:22.987Z,8072
2017-04-30T11:05:23.635Z,6088
2017-04-30T11:06:24.284Z,8728
2017-04-30T11:07:24.931Z,12820
2017-04-30T11:08:25.779Z,4608
2017-04-30T11:09:26.429Z,6336
2017-04-30T11:10:27.075Z,7056
2017-04-30T11:11:27.724Z,11728
2017-04-30T11:12:28.374Z,13784
2017-04-30T11:13:29.024Z,14180
2017-04-30T11:14:29.674Z,15324
2017-04-30T11:15:30.325Z,12692
2017-04-30T11:16:31.375Z,14868
2017-04-30T11:17:32.022Z,6312
2017-04-30T11:18:32.675Z,11456
2017-04-30T11:19:33.325Z,16692
2017-04-30T11:20:33.978Z,15256
2017-04-30T11:21:34.624Z,14248
2017-04-30T11:22:35.281Z,13636
2017-04-30T11:23:35.930Z,14064
2017-04-30T11:24:36.783Z,13708
2017-04-30T11:25:37.434Z,14148
2017-04-30T11:26:38.086Z,11536
2017-04-30T11:27:38.690Z,12796
2017-04-30T11:28:39.343Z,11716
2017-04-30T11:29:39.997Z,11596
2017-04-30T11:30:40.649Z,10596
2017-04-30T11:31:41.301Z,10252
2017-04-30T11:32:41.953Z,9996
2017-04-30T11:33:42.853Z,9816
2017-04-30T11:34:43.507Z,10252
2017-04-30T11:35:44.159Z,10348
2017-04-30T11:36:44.813Z,10512
2017-04-30T11:37:45.469Z,10580
2017-04-30T11:38:46.124Z,10700
2017-04-30T11:39:46.775Z,10564
2017-04-30T11:40:47.425Z,10608
2017-04-30T11:41:48.428Z,10228
2017-04-30T11:42:49.085Z,10196
2017-04-30T11:43:49.743Z,10224
2017-04-30T11:44:50.392Z,10136
2017-04-30T11:45:51.044Z,7788
2017-04-30T11:46:51.695Z,10512
2017-04-30T11:47:52.348Z,11156
2017-04-30T11:48:52.998Z,12412
2017-04-30T11:49:53.855Z,13384
2017-04-30T11:50:54.510Z,13532
2017-04-30T11:51:55.161Z,14032
2017-04-30T11:52:55.816Z,14276
2017-04-30T11:53:56.470Z,11076
2017-04-30T11:54:57.127Z,15760
2017-04-30T11:55:57.779Z,16668
2017-04-30T11:56:58.438Z,17216
2017-04-30T11:57:59.295Z,16024
2017-04-30T11:58:59.951Z,15612
2017-04-30T12:00:00.604Z,15400
2017-04-30T12:01:01.261Z,15364
2017-04-30T12:02:01.915Z,16100
2017-04-30T12:03:02.570Z,18688
2017-04-30T12:04:03.227Z,14468
2017-04-30T12:05:03.881Z,13336
2017-04-30T12:06:04.687Z,13780
2017-04-30T12:07:05.337Z,14908
2017-04-30T12:08:05.992Z,16796
2017-04-30T12:09:06.647Z,16280
2017-04-30T12:10:07.298Z,13808
2017-04-30T12:11:07.952Z,14220
2017-04-30T12:12:08.602Z,14740
2017-04-30T12:13:09.251Z,14416
2017-04-30T12:14:09.904Z,16556
2017-04-30T12:15:10.756Z,11972
2017-04-30T12:16:11.409Z,17620
2017-04-30T12:17:12.064Z,11824
2017-04-30T12:18:12.726Z,19936
2017-04-30T12:19:13.374Z,19072
2017-04-30T12:20:14.026Z,19616
2017-04-30T12:21:14.680Z,20384
2017-04-30T12:22:15.334Z,16932
2017-04-30T12:23:16.136Z,17164
2017-04-30T12:24:16.789Z,16848
2017-04-30T12:25:17.443Z,15632
2017-04-30T12:26:18.155Z,15336
2017-04-30T12:27:18.810Z,13732
2017-04-30T12:28:19.465Z,13604
2017-04-30T12:29:20.121Z,14648
2017-04-30T12:30:20.774Z,13920
2017-04-30T12:31:21.679Z,13892
2017-04-30T12:32:22.343Z,13428
2017-04-30T12:33:22.991Z,13764
2017-04-30T12:34:23.643Z,13872
2017-04-30T12:35:24.301Z,14908
2017-04-30T12:36:24.958Z,7468
2017-04-30T12:37:25.614Z,14128
2017-04-30T12:38:26.270Z,14000
2017-04-30T12:39:27.174Z,13380
2017-04-30T12:40:27.831Z,13516
2017-04-30T12:41:28.487Z,13524
2017-04-30T12:42:29.142Z,13356
2017-04-30T12:43:29.797Z,13504
2017-04-30T12:44:30.451Z,13548
2017-04-30T12:45:31.108Z,13520
2017-04-30T12:46:31.765Z,13628
2017-04-30T12:47:32.571Z,13448
2017-04-30T12:48:33.227Z,13384
2017-04-30T12:49:33.884Z,13700
2017-04-30T12:50:34.540Z,14224
2017-04-30T12:51:35.195Z,14476
2017-04-30T12:52:35.852Z,14828
2017-04-30T12:53:36.508Z,14480
2017-04-30T12:54:37.161Z,14672
2017-04-30T12:55:37.818Z,14256
2017-04-30T12:56:38.675Z,13580
2017-04-30T12:57:39.327Z,13440
2017-04-30T12:58:39.986Z,13572
2017-04-30T12:59:40.646Z,13540
2017-04-30T13:00:41.304Z,13576
2017-04-30T13:01:41.960Z,13556
2017-04-30T13:02:42.612Z,13708
2017-04-30T13:03:43.268Z,13792
2017-04-30T13:04:44.074Z,13624
2017-04-30T13:05:44.736Z,13596
2017-04-30T13:06:45.393Z,12020
2017-04-30T13:07:46.050Z,13292
2017-04-30T13:08:46.706Z,12676
2017-04-30T13:09:47.361Z,13896
2017-04-30T13:10:48.019Z,13996
2017-04-30T13:11:48.676Z,12760
2017-04-30T13:12:49.783Z,9136
2017-04-30T13:13:50.438Z,15272
2017-04-30T13:14:51.097Z,14340
2017-04-30T13:15:51.756Z,13220
2017-04-30T13:16:52.417Z,14016
2017-04-30T13:17:53.071Z,14160
2017-04-30T13:18:53.733Z,13824
2017-04-30T13:19:54.394Z,14084
2017-04-30T13:20:55.248Z,12628
2017-04-30T13:21:55.901Z,14144
2017-04-30T13:22:56.561Z,13788
2017-04-30T13:23:57.217Z,13296
2017-04-30T13:24:57.876Z,13584
2017-04-30T13:25:58.531Z,13676
2017-04-30T13:26:59.190Z,13728
2017-04-30T13:27:59.847Z,13724
2017-04-30T13:29:00.507Z,13624
2017-04-30T13:30:01.316Z,13648
2017-04-30T13:31:01.974Z,13872
2017-04-30T13:32:02.634Z,13980
2017-04-30T13:33:03.291Z,14176
2017-04-30T13:34:03.950Z,14280
2017-04-30T13:35:04.606Z,14476
2017-04-30T13:36:05.263Z,14856
2017-04-30T13:37:05.920Z,15272
2017-04-30T13:38:06.779Z,15332
2017-04-30T13:39:07.437Z,15764
2017-04-30T13:40:08.094Z,16236
2017-04-30T13:41:08.752Z,16752
2017-04-30T13:42:09.410Z,17372
2017-04-30T13:43:10.067Z,18624
2017-04-30T13:44:10.724Z,19456
2017-04-30T13:45:11.379Z,19296
2017-04-30T13:46:12.338Z,19264
2017-04-30T13:47:12.997Z,19136
2017-04-30T13:48:13.658Z,19936
2017-04-30T13:49:14.313Z,20160
2017-04-30T13:50:14.971Z,21184
2017-04-30T13:51:15.631Z,21376
2017-04-30T13:52:16.290Z,20960
2017-04-30T13:53:16.950Z,21440
2017-04-30T13:54:17.762Z,22464
2017-04-30T13:55:18.421Z,23360
2017-04-30T13:56:19.081Z,24640
2017-04-30T13:57:19.739Z,26976
2017-04-30T13:58:20.395Z,27488
2017-04-30T13:59:21.054Z,30528
2017-04-30T14:00:21.713Z,31744
2017-04-30T14:01:22.372Z,32480
2017-04-30T14:02:23.228Z,34240
2017-04-30T14:03:23.890Z,37184
2017-04-30T14:04:24.551Z,40000
2017-04-30T14:05:25.211Z,40960
2017-04-30T14:06:25.872Z,40896
2017-04-30T14:07:26.533Z,40672
2017-04-30T14:08:27.190Z,40416
2017-04-30T14:09:27.845Z,32608
2017-04-30T14:10:28.511Z,18752
2017-04-30T14:11:29.362Z,11700
2017-04-30T14:12:30.025Z,10772
2017-04-30T14:13:30.683Z,10376
2017-04-30T14:14:31.341Z,10332
2017-04-30T14:15:32.001Z,10492
2017-04-30T14:16:32.660Z,11812